WON1239 WIMM-WIBD
Flight info
| Callsign | WON1239 |
|---|---|
| Flight time | 0h 52m |
| Altitude | 23000 |
| Route | PUGER R461 INTOT |
| Aircraft | DH8D/M-SDE2E3FGRY/H |
Departure
| Time | 2026-05-07 13:55 |
|---|---|
| Airport | Kualanamu International Airport (WIMM) |
Arrival
| Time | 2026-05-07 14:47 |
|---|---|
| Airport | Pinang Kampai Airport (WIBD) |
| Time | Latitude | Longitude | Altitude | Speed | Heading |
|---|---|---|---|---|---|
| 2026-05-07 13:15 | 3.64026 | 98.87960 | 34 ft | 0 kts | 315° |
| 2026-05-07 13:40 | 3.64026 | 98.87959 | 34 ft | 0 kts | 315° |
| 2026-05-07 13:41 | 3.64018 | 98.87968 | 34 ft | 2 kts | 315° |
| 2026-05-07 13:41 | 3.64007 | 98.87978 | 34 ft | 2 kts | 328° |
| 2026-05-07 13:41 | 3.63993 | 98.87984 | 34 ft | 2 kts | 343° |
| 2026-05-07 13:41 | 3.63979 | 98.87987 | 34 ft | 2 kts | 358° |
| 2026-05-07 13:42 | 3.63964 | 98.87985 | 34 ft | 2 kts | 13° |
| 2026-05-07 13:42 | 3.63950 | 98.87981 | 34 ft | 2 kts | 27° |
| 2026-05-07 13:42 | 3.63937 | 98.87972 | 34 ft | 1 kts | 42° |
| 2026-05-07 13:42 | 3.63934 | 98.87969 | 34 ft | 0 kts | 45° |
| 2026-05-07 13:46 | 3.63935 | 98.87969 | 34 ft | 0 kts | 45° |
| 2026-05-07 13:46 | 3.63951 | 98.87987 | 34 ft | 6 kts | 51° |
| 2026-05-07 13:46 | 3.63986 | 98.88040 | 34 ft | 6 kts | 46° |
| 2026-05-07 13:46 | 3.64026 | 98.88070 | 34 ft | 6 kts | 37° |
| 2026-05-07 13:47 | 3.64059 | 98.88095 | 34 ft | 5 kts | 37° |
| 2026-05-07 13:47 | 3.64085 | 98.88117 | 34 ft | 4 kts | 45° |
| 2026-05-07 13:47 | 3.64113 | 98.88133 | 34 ft | 7 kts | 7° |
| 2026-05-07 13:47 | 3.64182 | 98.88092 | 34 ft | 15 kts | 314° |
| 2026-05-07 13:48 | 3.64263 | 98.88010 | 34 ft | 15 kts | 314° |
| 2026-05-07 13:48 | 3.64282 | 98.87929 | 34 ft | 11 kts | 230° |
| 2026-05-07 13:48 | 3.64231 | 98.87880 | 34 ft | 9 kts | 224° |
| 2026-05-07 13:48 | 3.64189 | 98.87839 | 34 ft | 7 kts | 224° |
| 2026-05-07 13:49 | 3.64156 | 98.87806 | 34 ft | 6 kts | 225° |
| 2026-05-07 13:49 | 3.64105 | 98.87754 | 34 ft | 14 kts | 225° |
| 2026-05-07 13:49 | 3.64014 | 98.87663 | 34 ft | 21 kts | 225° |
| 2026-05-07 13:49 | 3.63897 | 98.87547 | 34 ft | 25 kts | 225° |
| 2026-05-07 13:50 | 3.63808 | 98.87457 | 34 ft | 17 kts | 225° |
| 2026-05-07 13:50 | 3.63710 | 98.87360 | 34 ft | 22 kts | 225° |
| 2026-05-07 13:50 | 3.63621 | 98.87263 | 34 ft | 13 kts | 252° |
| 2026-05-07 13:50 | 3.63639 | 98.87189 | 34 ft | 9 kts | 279° |
| 2026-05-07 13:51 | 3.63604 | 98.87125 | 34 ft | 12 kts | 224° |
| 2026-05-07 13:51 | 3.63539 | 98.87061 | 34 ft | 13 kts | 225° |
| 2026-05-07 13:51 | 3.63469 | 98.86990 | 34 ft | 15 kts | 225° |
| 2026-05-07 13:51 | 3.63383 | 98.86905 | 34 ft | 20 kts | 225° |
| 2026-05-07 13:52 | 3.63273 | 98.86792 | 34 ft | 24 kts | 226° |
| 2026-05-07 13:52 | 3.63139 | 98.86664 | 34 ft | 27 kts | 225° |
| 2026-05-07 13:52 | 3.62996 | 98.86520 | 34 ft | 30 kts | 225° |
| 2026-05-07 13:52 | 3.62843 | 98.86369 | 34 ft | 31 kts | 225° |
| 2026-05-07 13:53 | 3.62689 | 98.86215 | 34 ft | 28 kts | 225° |
| 2026-05-07 13:53 | 3.62568 | 98.86095 | 34 ft | 21 kts | 225° |
| 2026-05-07 13:53 | 3.62505 | 98.86001 | 34 ft | 13 kts | 272° |
| 2026-05-07 13:53 | 3.62541 | 98.85930 | 34 ft | 10 kts | 316° |
| 2026-05-07 13:54 | 3.62588 | 98.85886 | 34 ft | 6 kts | 324° |
| 2026-05-07 13:54 | 3.62621 | 98.85894 | 34 ft | 3 kts | 45° |
| 2026-05-07 13:54 | 3.62622 | 98.85895 | 34 ft | 0 kts | 45° |
| 2026-05-07 13:54 | 3.62635 | 98.85908 | 34 ft | 19 kts | 49° |
| 2026-05-07 13:55 | 3.62956 | 98.86239 | 34 ft | 109 kts | 43° |
| 2026-05-07 13:55 | 3.63631 | 98.86904 | 115 ft | 152 kts | 44° |
| 2026-05-07 13:55 | 3.64418 | 98.87672 | 534 ft | 165 kts | 41° |
| 2026-05-07 13:55 | 3.65165 | 98.88578 | 989 ft | 179 kts | 65° |
| 2026-05-07 13:56 | 3.65227 | 98.89834 | 1518 ft | 185 kts | 98° |
| 2026-05-07 13:56 | 3.64940 | 98.91053 | 2202 ft | 188 kts | 105° |
| 2026-05-07 13:56 | 3.64542 | 98.92328 | 2774 ft | 193 kts | 106° |
| 2026-05-07 13:56 | 3.64153 | 98.93602 | 3459 ft | 194 kts | 106° |
| 2026-05-07 13:57 | 3.63760 | 98.94907 | 4099 ft | 196 kts | 106° |
| 2026-05-07 13:57 | 3.63367 | 98.96214 | 4723 ft | 197 kts | 106° |
| 2026-05-07 13:57 | 3.62979 | 98.97516 | 5243 ft | 200 kts | 106° |
| 2026-05-07 13:57 | 3.62580 | 98.98846 | 5768 ft | 201 kts | 107° |
| 2026-05-07 13:58 | 3.62179 | 99.00189 | 6287 ft | 202 kts | 107° |
| 2026-05-07 13:58 | 3.61774 | 99.01543 | 6785 ft | 204 kts | 106° |
| 2026-05-07 13:58 | 3.61369 | 99.02903 | 7274 ft | 204 kts | 106° |
| 2026-05-07 13:58 | 3.60964 | 99.04257 | 7731 ft | 207 kts | 106° |
| 2026-05-07 13:59 | 3.60553 | 99.05635 | 8207 ft | 208 kts | 106° |
| 2026-05-07 13:59 | 3.60139 | 99.07016 | 8681 ft | 208 kts | 106° |
| 2026-05-07 13:59 | 3.59723 | 99.08403 | 9113 ft | 210 kts | 106° |
| 2026-05-07 13:59 | 3.59303 | 99.09808 | 9559 ft | 211 kts | 106° |
| 2026-05-07 14:00 | 3.58889 | 99.11198 | 9996 ft | 211 kts | 106° |
| 2026-05-07 14:00 | 3.58469 | 99.12604 | 10391 ft | 213 kts | 106° |
| 2026-05-07 14:00 | 3.58026 | 99.14083 | 10423 ft | 235 kts | 106° |
| 2026-05-07 14:00 | 3.57554 | 99.15660 | 10762 ft | 239 kts | 105° |
| 2026-05-07 14:01 | 3.57078 | 99.17258 | 11153 ft | 240 kts | 105° |
| 2026-05-07 14:01 | 3.56429 | 99.18824 | 11493 ft | 244 kts | 119° |
| 2026-05-07 14:01 | 3.55485 | 99.20224 | 11859 ft | 246 kts | 123° |
| 2026-05-07 14:01 | 3.54488 | 99.21639 | 12270 ft | 247 kts | 123° |
| 2026-05-07 14:02 | 3.53502 | 99.23043 | 12647 ft | 247 kts | 123° |
| 2026-05-07 14:02 | 3.52517 | 99.24449 | 12961 ft | 250 kts | 123° |
| 2026-05-07 14:02 | 3.51509 | 99.25890 | 13316 ft | 251 kts | 123° |
| 2026-05-07 14:02 | 3.50521 | 99.27305 | 13674 ft | 251 kts | 123° |
| 2026-05-07 14:03 | 3.49509 | 99.28758 | 13977 ft | 253 kts | 122° |
| 2026-05-07 14:03 | 3.48505 | 99.30200 | 14299 ft | 254 kts | 122° |
| 2026-05-07 14:03 | 3.47485 | 99.31664 | 14641 ft | 254 kts | 122° |
| 2026-05-07 14:03 | 3.46479 | 99.33111 | 14893 ft | 257 kts | 122° |
| 2026-05-07 14:04 | 3.45461 | 99.34575 | 15200 ft | 258 kts | 122° |
| 2026-05-07 14:04 | 3.44439 | 99.36044 | 15550 ft | 255 kts | 122° |
| 2026-05-07 14:04 | 3.43400 | 99.37540 | 15724 ft | 260 kts | 122° |
| 2026-05-07 14:04 | 3.42385 | 99.39001 | 16010 ft | 262 kts | 122° |
| 2026-05-07 14:05 | 3.41339 | 99.40505 | 16317 ft | 260 kts | 122° |
| 2026-05-07 14:05 | 3.40303 | 99.41997 | 16522 ft | 263 kts | 122° |
| 2026-05-07 14:05 | 3.39258 | 99.43501 | 16834 ft | 261 kts | 122° |
| 2026-05-07 14:05 | 3.38197 | 99.45026 | 16835 ft | 273 kts | 122° |
| 2026-05-07 14:06 | 3.37113 | 99.46588 | 16828 ft | 276 kts | 122° |
| 2026-05-07 14:06 | 3.36013 | 99.48174 | 16827 ft | 278 kts | 122° |
| 2026-05-07 14:06 | 3.34904 | 99.49772 | 16825 ft | 281 kts | 122° |
| 2026-05-07 14:06 | 3.33786 | 99.51382 | 16828 ft | 282 kts | 122° |
| 2026-05-07 14:07 | 3.32663 | 99.52999 | 16834 ft | 284 kts | 122° |
| 2026-05-07 14:07 | 3.31526 | 99.54633 | 16837 ft | 285 kts | 122° |
| 2026-05-07 14:07 | 3.30163 | 99.56077 | 16809 ft | 291 kts | 144° |
| 2026-05-07 14:07 | 3.28303 | 99.56901 | 16837 ft | 295 kts | 156° |
| 2026-05-07 14:08 | 3.26337 | 99.57602 | 16842 ft | 296 kts | 156° |
| 2026-05-07 14:08 | 3.24382 | 99.58294 | 16838 ft | 298 kts | 156° |
| 2026-05-07 14:08 | 3.22419 | 99.58990 | 16840 ft | 298 kts | 156° |
| 2026-05-07 14:08 | 3.20459 | 99.59686 | 16840 ft | 299 kts | 156° |
| 2026-05-07 14:09 | 3.18487 | 99.60388 | 16836 ft | 300 kts | 156° |
| 2026-05-07 14:09 | 3.16516 | 99.61092 | 16838 ft | 300 kts | 156° |
| 2026-05-07 14:09 | 3.14536 | 99.61800 | 16836 ft | 300 kts | 156° |
| 2026-05-07 14:09 | 3.12566 | 99.62505 | 16837 ft | 301 kts | 156° |
| 2026-05-07 14:10 | 3.10590 | 99.63212 | 16838 ft | 301 kts | 156° |
| 2026-05-07 14:10 | 3.08611 | 99.63921 | 16846 ft | 301 kts | 156° |
| 2026-05-07 14:10 | 3.06626 | 99.64632 | 16848 ft | 301 kts | 156° |
| 2026-05-07 14:10 | 3.04647 | 99.65340 | 16847 ft | 302 kts | 156° |
| 2026-05-07 14:11 | 3.02660 | 99.66054 | 16845 ft | 302 kts | 156° |
| 2026-05-07 14:11 | 3.00675 | 99.66782 | 16841 ft | 302 kts | 156° |
| 2026-05-07 14:11 | 2.98698 | 99.67490 | 16841 ft | 303 kts | 157° |
| 2026-05-07 14:11 | 2.96700 | 99.68201 | 16846 ft | 304 kts | 156° |
| 2026-05-07 14:12 | 2.94696 | 99.68916 | 16851 ft | 304 kts | 157° |
| 2026-05-07 14:12 | 2.92676 | 99.69635 | 16854 ft | 305 kts | 156° |
| 2026-05-07 14:12 | 2.90688 | 99.70342 | 16855 ft | 305 kts | 156° |
| 2026-05-07 14:12 | 2.88661 | 99.71060 | 16845 ft | 306 kts | 157° |
| 2026-05-07 14:13 | 2.86643 | 99.71774 | 16849 ft | 306 kts | 157° |
| 2026-05-07 14:13 | 2.84634 | 99.72488 | 16847 ft | 306 kts | 157° |
| 2026-05-07 14:13 | 2.82619 | 99.73204 | 16848 ft | 306 kts | 156° |
| 2026-05-07 14:13 | 2.80607 | 99.73917 | 16842 ft | 306 kts | 157° |
| 2026-05-07 14:14 | 2.78591 | 99.74633 | 16845 ft | 306 kts | 156° |
| 2026-05-07 14:14 | 2.76578 | 99.75349 | 16852 ft | 307 kts | 157° |
| 2026-05-07 14:14 | 2.74562 | 99.76065 | 16848 ft | 307 kts | 156° |
| 2026-05-07 14:14 | 2.72542 | 99.76784 | 16843 ft | 308 kts | 156° |
| 2026-05-07 14:15 | 2.70519 | 99.77502 | 16838 ft | 308 kts | 157° |
| 2026-05-07 14:15 | 2.68493 | 99.78223 | 16841 ft | 308 kts | 156° |
| 2026-05-07 14:15 | 2.66450 | 99.78951 | 16847 ft | 308 kts | 156° |
| 2026-05-07 14:15 | 2.64428 | 99.79670 | 16837 ft | 308 kts | 156° |
| 2026-05-07 14:16 | 2.62401 | 99.80388 | 16839 ft | 308 kts | 156° |
| 2026-05-07 14:16 | 2.60375 | 99.81107 | 16846 ft | 308 kts | 156° |
| 2026-05-07 14:16 | 2.58403 | 99.81921 | 16831 ft | 305 kts | 146° |
| 2026-05-07 14:16 | 2.56865 | 99.83317 | 16867 ft | 298 kts | 128° |
| 2026-05-07 14:17 | 2.55497 | 99.84917 | 16841 ft | 299 kts | 128° |
| 2026-05-07 14:17 | 2.54164 | 99.86493 | 16821 ft | 299 kts | 128° |
| 2026-05-07 14:17 | 2.52816 | 99.88087 | 16834 ft | 299 kts | 127° |
| 2026-05-07 14:17 | 2.51466 | 99.89683 | 16841 ft | 299 kts | 127° |
| 2026-05-07 14:18 | 2.50115 | 99.91278 | 16844 ft | 299 kts | 127° |
| 2026-05-07 14:18 | 2.48761 | 99.92875 | 16850 ft | 300 kts | 127° |
| 2026-05-07 14:18 | 2.47408 | 99.94469 | 16855 ft | 300 kts | 127° |
| 2026-05-07 14:18 | 2.46055 | 99.96063 | 16844 ft | 301 kts | 128° |
| 2026-05-07 14:19 | 2.44702 | 99.97656 | 16834 ft | 301 kts | 127° |
| 2026-05-07 14:19 | 2.43343 | 99.99258 | 16838 ft | 301 kts | 127° |
| 2026-05-07 14:19 | 2.41976 | 100.00867 | 16838 ft | 301 kts | 128° |
| 2026-05-07 14:19 | 2.40614 | 100.02469 | 16846 ft | 301 kts | 128° |
| 2026-05-07 14:20 | 2.39256 | 100.04067 | 16834 ft | 301 kts | 128° |
| 2026-05-07 14:20 | 2.37915 | 100.05645 | 16831 ft | 301 kts | 128° |
| 2026-05-07 14:20 | 2.36554 | 100.07246 | 16830 ft | 301 kts | 127° |
| 2026-05-07 14:20 | 2.35201 | 100.08839 | 16838 ft | 301 kts | 127° |
| 2026-05-07 14:21 | 2.33826 | 100.10455 | 16846 ft | 301 kts | 127° |
| 2026-05-07 14:21 | 2.32479 | 100.12040 | 16841 ft | 302 kts | 127° |
| 2026-05-07 14:21 | 2.31118 | 100.13641 | 16838 ft | 302 kts | 128° |
| 2026-05-07 14:21 | 2.29759 | 100.15241 | 16829 ft | 302 kts | 128° |
| 2026-05-07 14:22 | 2.28388 | 100.16853 | 16832 ft | 302 kts | 127° |
| 2026-05-07 14:22 | 2.27055 | 100.18475 | 16834 ft | 302 kts | 124° |
| 2026-05-07 14:22 | 2.25840 | 100.20180 | 16844 ft | 301 kts | 122° |
| 2026-05-07 14:22 | 2.24638 | 100.21909 | 16835 ft | 302 kts | 122° |
| 2026-05-07 14:23 | 2.23431 | 100.23637 | 16823 ft | 302 kts | 122° |
| 2026-05-07 14:23 | 2.22225 | 100.25356 | 16821 ft | 302 kts | 122° |
| 2026-05-07 14:23 | 2.21021 | 100.27068 | 16829 ft | 302 kts | 123° |
| 2026-05-07 14:23 | 2.19810 | 100.28784 | 16824 ft | 302 kts | 122° |
| 2026-05-07 14:24 | 2.18598 | 100.30500 | 16823 ft | 302 kts | 123° |
| 2026-05-07 14:24 | 2.17383 | 100.32217 | 16820 ft | 302 kts | 123° |
| 2026-05-07 14:24 | 2.16173 | 100.33926 | 16823 ft | 302 kts | 122° |
| 2026-05-07 14:24 | 2.14955 | 100.35644 | 16828 ft | 302 kts | 123° |
| 2026-05-07 14:25 | 2.13723 | 100.37382 | 16826 ft | 303 kts | 122° |
| 2026-05-07 14:25 | 2.12513 | 100.39088 | 16826 ft | 303 kts | 122° |
| 2026-05-07 14:25 | 2.11293 | 100.40807 | 16819 ft | 303 kts | 123° |
| 2026-05-07 14:25 | 2.10074 | 100.42524 | 16824 ft | 303 kts | 123° |
| 2026-05-07 14:26 | 2.08854 | 100.44243 | 16822 ft | 303 kts | 123° |
| 2026-05-07 14:26 | 2.07620 | 100.45981 | 16824 ft | 303 kts | 123° |
| 2026-05-07 14:26 | 2.06401 | 100.47698 | 16828 ft | 303 kts | 123° |
| 2026-05-07 14:26 | 2.05177 | 100.49422 | 16824 ft | 303 kts | 122° |
| 2026-05-07 14:27 | 2.03950 | 100.51148 | 16821 ft | 303 kts | 123° |
| 2026-05-07 14:27 | 2.02733 | 100.52863 | 16821 ft | 303 kts | 123° |
| 2026-05-07 14:27 | 2.01503 | 100.54595 | 16824 ft | 303 kts | 123° |
| 2026-05-07 14:27 | 2.00293 | 100.56299 | 16826 ft | 303 kts | 122° |
| 2026-05-07 14:28 | 1.99066 | 100.58026 | 16824 ft | 304 kts | 123° |
| 2026-05-07 14:28 | 1.97840 | 100.59750 | 16823 ft | 303 kts | 122° |
| 2026-05-07 14:28 | 1.96617 | 100.61472 | 16828 ft | 303 kts | 123° |
| 2026-05-07 14:28 | 1.95399 | 100.63188 | 16831 ft | 303 kts | 123° |
| 2026-05-07 14:29 | 1.94177 | 100.64908 | 16844 ft | 303 kts | 123° |
| 2026-05-07 14:29 | 1.92947 | 100.66640 | 16664 ft | 309 kts | 123° |
| 2026-05-07 14:29 | 1.91706 | 100.68388 | 16257 ft | 309 kts | 123° |
| 2026-05-07 14:29 | 1.90468 | 100.70136 | 15930 ft | 305 kts | 123° |
| 2026-05-07 14:30 | 1.89244 | 100.71862 | 15621 ft | 301 kts | 123° |
| 2026-05-07 14:30 | 1.88046 | 100.73550 | 15316 ft | 297 kts | 123° |
| 2026-05-07 14:30 | 1.86855 | 100.75227 | 15009 ft | 294 kts | 123° |
| 2026-05-07 14:30 | 1.85672 | 100.76894 | 14700 ft | 292 kts | 123° |
| 2026-05-07 14:31 | 1.84493 | 100.78550 | 14395 ft | 289 kts | 123° |
| 2026-05-07 14:31 | 1.83332 | 100.80183 | 14087 ft | 288 kts | 123° |
| 2026-05-07 14:31 | 1.82178 | 100.81805 | 13828 ft | 284 kts | 123° |
| 2026-05-07 14:31 | 1.81044 | 100.83398 | 13802 ft | 282 kts | 123° |
| 2026-05-07 14:32 | 1.79896 | 100.85008 | 13807 ft | 285 kts | 123° |
| 2026-05-07 14:32 | 1.78738 | 100.86634 | 13812 ft | 287 kts | 123° |
| 2026-05-07 14:32 | 1.77573 | 100.88270 | 13814 ft | 290 kts | 123° |
| 2026-05-07 14:32 | 1.76394 | 100.89927 | 13815 ft | 291 kts | 123° |
| 2026-05-07 14:33 | 1.75215 | 100.91585 | 13816 ft | 292 kts | 123° |
| 2026-05-07 14:33 | 1.73904 | 100.93119 | 13810 ft | 295 kts | 134° |
| 2026-05-07 14:33 | 1.72358 | 100.94482 | 13813 ft | 296 kts | 137° |
| 2026-05-07 14:33 | 1.70787 | 100.95827 | 13815 ft | 297 kts | 137° |
| 2026-05-07 14:34 | 1.69146 | 100.97107 | 13812 ft | 299 kts | 143° |
| 2026-05-07 14:34 | 1.67374 | 100.98229 | 13811 ft | 299 kts | 146° |
| 2026-05-07 14:34 | 1.65593 | 100.99318 | 13805 ft | 300 kts | 146° |
| 2026-05-07 14:34 | 1.63804 | 101.00412 | 13809 ft | 300 kts | 146° |
| 2026-05-07 14:35 | 1.62039 | 101.01492 | 13813 ft | 300 kts | 146° |
| 2026-05-07 14:35 | 1.60231 | 101.02601 | 13812 ft | 301 kts | 146° |
| 2026-05-07 14:35 | 1.58447 | 101.03696 | 13808 ft | 301 kts | 146° |
| 2026-05-07 14:35 | 1.56653 | 101.04795 | 13811 ft | 301 kts | 146° |
| 2026-05-07 14:36 | 1.54804 | 101.05787 | 13809 ft | 303 kts | 153° |
| 2026-05-07 14:36 | 1.52853 | 101.06645 | 13809 ft | 303 kts | 154° |
| 2026-05-07 14:36 | 1.51042 | 101.07649 | 13785 ft | 299 kts | 137° |
| 2026-05-07 14:36 | 1.49884 | 101.09332 | 13721 ft | 296 kts | 112° |
| 2026-05-07 14:37 | 1.49174 | 101.11260 | 13464 ft | 291 kts | 108° |
| 2026-05-07 14:37 | 1.47906 | 101.15080 | 12553 ft | 287 kts | 107° |
| 2026-05-07 14:37 | 1.47303 | 101.16934 | 12038 ft | 283 kts | 107° |
| 2026-05-07 14:38 | 1.46693 | 101.18816 | 11445 ft | 282 kts | 107° |
| 2026-05-07 14:38 | 1.46100 | 101.20647 | 10861 ft | 280 kts | 107° |
| 2026-05-07 14:38 | 1.45501 | 101.22492 | 10264 ft | 279 kts | 108° |
| 2026-05-07 14:38 | 1.44585 | 101.24180 | 9649 ft | 280 kts | 129° |
| 2026-05-07 14:39 | 1.43135 | 101.25481 | 9066 ft | 279 kts | 140° |
| 2026-05-07 14:39 | 1.41624 | 101.26659 | 8482 ft | 278 kts | 141° |
| 2026-05-07 14:39 | 1.40100 | 101.27843 | 7981 ft | 273 kts | 141° |
| 2026-05-07 14:39 | 1.38632 | 101.28992 | 7607 ft | 263 kts | 141° |
| 2026-05-07 14:40 | 1.37220 | 101.30106 | 7239 ft | 255 kts | 141° |
| 2026-05-07 14:40 | 1.35864 | 101.31215 | 6866 ft | 248 kts | 135° |
| 2026-05-07 14:40 | 1.35078 | 101.32682 | 6476 ft | 239 kts | 98° |
| 2026-05-07 14:40 | 1.35315 | 101.34272 | 6117 ft | 231 kts | 71° |
| 2026-05-07 14:41 | 1.35923 | 101.35744 | 5756 ft | 225 kts | 67° |
| 2026-05-07 14:41 | 1.36559 | 101.37158 | 5388 ft | 220 kts | 66° |
| 2026-05-07 14:41 | 1.37197 | 101.38520 | 5007 ft | 216 kts | 65° |
| 2026-05-07 14:41 | 1.37841 | 101.39858 | 4519 ft | 218 kts | 64° |
| 2026-05-07 14:42 | 1.38659 | 101.41116 | 4155 ft | 209 kts | 40° |
| 2026-05-07 14:42 | 1.39975 | 101.41510 | 4085 ft | 202 kts | 354° |
| 2026-05-07 14:42 | 1.41346 | 101.41091 | 3933 ft | 215 kts | 339° |
| 2026-05-07 14:42 | 1.42750 | 101.40486 | 3647 ft | 219 kts | 336° |
| 2026-05-07 14:43 | 1.44123 | 101.39848 | 3343 ft | 214 kts | 335° |
| 2026-05-07 14:43 | 1.45467 | 101.39214 | 3037 ft | 209 kts | 335° |
| 2026-05-07 14:43 | 1.46795 | 101.38654 | 2736 ft | 202 kts | 348° |
| 2026-05-07 14:43 | 1.48154 | 101.38620 | 2484 ft | 190 kts | 7° |
| 2026-05-07 14:44 | 1.49437 | 101.38741 | 2238 ft | 179 kts | 8° |
| 2026-05-07 14:44 | 1.50608 | 101.38850 | 2014 ft | 157 kts | 8° |
| 2026-05-07 14:44 | 1.51660 | 101.38951 | 1812 ft | 144 kts | 9° |
| 2026-05-07 14:44 | 1.52643 | 101.39050 | 1652 ft | 141 kts | 9° |
| 2026-05-07 14:45 | 1.53590 | 101.39205 | 1484 ft | 130 kts | 23° |
| 2026-05-07 14:45 | 1.54362 | 101.39591 | 1322 ft | 120 kts | 34° |
| 2026-05-07 14:45 | 1.55094 | 101.40039 | 1184 ft | 127 kts | 34° |
| 2026-05-07 14:45 | 1.55845 | 101.40484 | 1007 ft | 124 kts | 33° |
| 2026-05-07 14:46 | 1.56583 | 101.40913 | 854 ft | 123 kts | 33° |
| 2026-05-07 14:46 | 1.57346 | 101.41362 | 731 ft | 127 kts | 33° |
| 2026-05-07 14:46 | 1.58104 | 101.41772 | 434 ft | 122 kts | 28° |
| 2026-05-07 14:46 | 1.58857 | 101.42182 | 319 ft | 124 kts | 32° |
| 2026-05-07 14:47 | 1.59605 | 101.42609 | 203 ft | 122 kts | 32° |
| 2026-05-07 14:47 | 1.60361 | 101.43042 | 54 ft | 123 kts | 28° |
| 2026-05-07 14:47 | 1.60967 | 101.43389 | 48 ft | 67 kts | 30° |
| 2026-05-07 14:47 | 1.61239 | 101.43549 | 51 ft | 26 kts | 31° |
| 2026-05-07 14:48 | 1.61332 | 101.43603 | 50 ft | 8 kts | 30° |
| 2026-05-07 14:48 | 1.61389 | 101.43639 | 48 ft | 3 kts | 29° |
| 2026-05-07 14:48 | 1.61397 | 101.43632 | 48 ft | 2 kts | 246° |
| 2026-05-07 14:48 | 1.61365 | 101.43613 | 49 ft | 7 kts | 207° |
| 2026-05-07 14:49 | 1.61305 | 101.43580 | 51 ft | 12 kts | 210° |
| 2026-05-07 14:49 | 1.61212 | 101.43527 | 51 ft | 18 kts | 209° |
| 2026-05-07 14:49 | 1.61114 | 101.43467 | 49 ft | 10 kts | 236° |
| 2026-05-07 14:49 | 1.61133 | 101.43403 | 49 ft | 8 kts | 302° |
| 2026-05-07 14:50 | 1.61172 | 101.43381 | 49 ft | 6 kts | 1° |
| 2026-05-07 14:50 | 1.61209 | 101.43374 | 50 ft | 2 kts | 317° |
| 2026-05-07 14:50 | 1.61211 | 101.43360 | 49 ft | 1 kts | 246° |
| 2026-05-07 14:50 | 1.61210 | 101.43359 | 49 ft | 0 kts | 246° |